De Sui — BSFU — position and weather

sailwx.info

Track history (hours):
 
Tides and Currents Weather Stations Pressure Air Temp Water Temp Dewpoint Dewpoint Depression Visibility Wind Speed Wind Dir Waves Ship Positions

De Sui

Last reported at 2016-Nov-27 05:31 UTC. Time now 2016-Dec-11 06:15 UTC.
Position N 22°52' E 113°33'.
Warning: this ship's position is 14 days out of date.

Length 65 m; draft 4.8 m.

Type: Towing. MMSI: 413070000.

Date/timePositionNaut miles runAvg speedWind from/ knotsBaromVisibWave heightAir tempDewpointWater temp
2016-Nov-27 05:31N 22°52' E 113°33'0 0.1
2016-Nov-27 04:23N 22°52' E 113°33'0 0.0
2016-Nov-27 02:25N 22°52' E 113°33'0 0.0
2016-Nov-27 01:20N 22°52' E 113°33'0 0.0
2016-Nov-27 00:29N 22°52' E 113°33'0 0.0
2016-Nov-26 23:32N 22°52' E 113°33'0 0.0
2016-Nov-26 22:32N 22°52' E 113°33'0 0.0
2016-Nov-26 19:15N 22°52' E 113°33'0 0.0
2016-Nov-26 11:05N 22°52' E 113°33'1 0.2
2016-Nov-26 05:32N 22°52' E 113°33'6 6.0
2016-Nov-26 04:34N 22°57' E 113°32'8 8.0
2016-Nov-26 03:33N 23°05' E 113°28'6 6.4
2016-Nov-26 02:33N 23°02' E 113°21'1 1.0
2016-Nov-26 01:33N 23°03' E 113°21'0 0.0
2016-Nov-26 00:33N 23°03' E 113°21'0 0.0
2016-Nov-25 23:33N 23°03' E 113°21'0 0.0
2016-Nov-25 22:33N 23°03' E 113°21'0 0.0
2016-Nov-25 21:32N 23°03' E 113°21'0 0.0
2016-Nov-25 20:33N 23°03' E 113°21'0 0.0
2016-Nov-25 19:33N 23°03' E 113°21'0 0.0
2016-Nov-25 18:33N 23°03' E 113°21'0 0.0
2016-Nov-25 17:33N 23°03' E 113°21'0 0.0
2016-Nov-25 16:33N 23°03' E 113°21'0 0.0
2016-Nov-25 15:33N 23°03' E 113°21'0 0.0
2016-Nov-25 14:33N 23°03' E 113°21'0 0.0
2016-Nov-25 13:33N 23°03' E 113°21'0 0.0
2016-Nov-25 12:33N 23°03' E 113°21'0 0.0
2016-Nov-25 11:33N 23°03' E 113°21'0 0.0
2016-Nov-25 10:33N 23°03' E 113°21'0 0.0
2016-Nov-25 09:33N 23°03' E 113°21'0 0.0
2016-Nov-25 08:33N 23°03' E 113°21'0 0.0
2016-Nov-25 07:33N 23°03' E 113°21'0 0.0
2016-Nov-25 06:32N 23°03' E 113°21'0 0.0
2016-Nov-25 05:33N 23°03' E 113°21'0 0.0
2016-Nov-25 04:33N 23°03' E 113°21'0 0.0
2016-Nov-25 03:33N 23°03' E 113°21'0 0.0
2016-Nov-25 02:32N 23°03' E 113°21'0 0.0
2016-Nov-25 01:33N 23°03' E 113°21'0 0.0
2016-Nov-25 00:32N 23°03' E 113°21'0 0.0
2016-Nov-24 23:33N 23°03' E 113°21'0 0.0
2016-Nov-24 22:32N 23°03' E 113°21'0 0.0
2016-Nov-24 21:33N 23°03' E 113°21'0 0.0
2016-Nov-24 20:33N 23°03' E 113°21'0 0.0
2016-Nov-24 19:32N 23°03' E 113°21'0 0.0
2016-Nov-24 18:33N 23°03' E 113°21'0 0.0
2016-Nov-24 17:33N 23°03' E 113°21'0 0.0
2016-Nov-24 16:32N 23°03' E 113°21'0 0.0
2016-Nov-24 15:33N 23°03' E 113°21'0 0.0
2016-Nov-24 14:33N 23°03' E 113°21'0 0.0
2016-Nov-24 13:33N 23°03' E 113°21'0 0.0
2016-Nov-24 12:32N 23°03' E 113°21'0 0.0
2016-Nov-24 11:33N 23°03' E 113°21'0 0.0
2016-Nov-24 10:33N 23°03' E 113°21'0 0.0
2016-Nov-24 09:33N 23°03' E 113°21'0 0.0
2016-Nov-24 08:33N 23°03' E 113°21'0 0.1
2016-Nov-24 07:33N 23°03' E 113°21'0 0.0
2016-Nov-24 06:29N 23°03' E 113°21'0 0.1
2016-Nov-24 05:32N 23°03' E 113°21'0 0.0
2016-Nov-24 04:33N 23°03' E 113°21'0 0.0
2016-Nov-24 03:28N 23°03' E 113°21'0 0.0
2016-Nov-24 02:33N 23°03' E 113°21'0 0.0
2016-Nov-24 01:33N 23°03' E 113°21'0 0.0
2016-Nov-24 00:33N 23°03' E 113°21'0 0.0
2016-Nov-23 23:33N 23°03' E 113°21'0 0.0
2016-Nov-23 22:33N 23°03' E 113°21'0 0.0
2016-Nov-23 21:33N 23°03' E 113°21'0 0.0
2016-Nov-23 20:33N 23°03' E 113°21'0 0.0
2016-Nov-23 19:33N 23°03' E 113°21'0 0.0
2016-Nov-23 18:33N 23°03' E 113°21'0 0.0
2016-Nov-23 17:33N 23°03' E 113°21'0 0.0
2016-Nov-23 16:33N 23°03' E 113°21'0 0.0
2016-Nov-23 15:18N 23°03' E 113°21'0 0.0
2016-Nov-23 14:25N 23°03' E 113°21'0 0.0
2016-Nov-23 13:32N 23°03' E 113°21'0 0.0
2016-Nov-23 12:33N 23°03' E 113°21'0 0.0
2016-Nov-23 11:33N 23°03' E 113°21'0 0.0
2016-Nov-23 10:33N 23°03' E 113°21'0 0.0
2016-Nov-23 09:33N 23°03' E 113°21'0 0.0
2016-Nov-23 08:28N 23°03' E 113°21'0 0.0
2016-Nov-23 07:33N 23°03' E 113°21'0 0.0
2016-Nov-23 06:12N 23°03' E 113°21'0 0.0
2016-Nov-23 03:33N 23°03' E 113°21'0 0.0
2016-Nov-23 02:32N 23°03' E 113°21'0 0.0
2016-Nov-22 17:27N 23°03' E 113°21'0 0.0
2016-Nov-22 08:31N 23°03' E 113°21'0 0.0
2016-Nov-22 07:33N 23°03' E 113°21'0 0.0
2016-Nov-22 05:30N 23°03' E 113°21'0 0.0
2016-Nov-22 03:33N 23°03' E 113°21'0 0.0
2016-Nov-22 02:31N 23°03' E 113°21'0 0.0
2016-Nov-21 23:32N 23°03' E 113°21'0 0.0
2016-Nov-21 21:33N 23°03' E 113°21'0 0.0
2016-Nov-21 17:33N 23°03' E 113°21'0 0.0
2016-Nov-21 14:33N 23°03' E 113°21'0 0.0
2016-Nov-21 13:32N 23°03' E 113°21'0 0.0
2016-Nov-21 12:32N 23°03' E 113°21'0 0.0
2016-Nov-21 11:32N 23°03' E 113°21'0 0.0
2016-Nov-21 10:33N 23°03' E 113°21'0 0.0
2016-Nov-21 08:32N 23°03' E 113°21'0 0.0
2016-Nov-21 07:33N 23°03' E 113°21'3 1.4
2016-Nov-21 05:33N 23°02' E 113°23'7 6.3
2016-Nov-21 04:30N 23°02' E 113°31'11 0.2
2016-Nov-19 02:07N 22°52' E 113°34'6 9.7
2016-Nov-19 01:32N 22°57' E 113°32'9 8.8
2016-Nov-19 00:33N 23°05' E 113°27'7 6.5
2016-Nov-18 23:33N 23°03' E 113°21'0 0.1
2016-Nov-18 20:33N 23°03' E 113°21'0 0.0
2016-Nov-18 18:33N 23°03' E 113°21'0 0.0
2016-Nov-18 17:32N 23°03' E 113°21'0 0.0
2016-Nov-18 14:21N 23°03' E 113°21'0 0.0
2016-Nov-18 12:33N 23°03' E 113°21'0 0.0
2016-Nov-18 11:33N 23°03' E 113°21'0 0.1
2016-Nov-18 09:28N 23°03' E 113°20'0 0.0
2016-Nov-18 07:32N 23°03' E 113°20'0 0.1
2016-Nov-18 05:32N 23°03' E 113°21'0 0.0
2016-Nov-18 04:27N 23°03' E 113°21'0 0.0
2016-Nov-18 01:33N 23°03' E 113°21'0 0.0
2016-Nov-18 00:33N 23°03' E 113°21'0 0.0
2016-Nov-17 23:33N 23°03' E 113°21'0 0.0
2016-Nov-17 22:33N 23°03' E 113°21'0 0.0
2016-Nov-17 21:32N 23°03' E 113°21'0 0.0
2016-Nov-17 14:33N 23°03' E 113°21'0 0.0
2016-Nov-17 13:30N 23°03' E 113°21'0 0.0
2016-Nov-17 12:33N 23°03' E 113°21'0 0.0
2016-Nov-17 11:33N 23°03' E 113°21'0 0.0
2016-Nov-17 08:25N 23°03' E 113°21'0 0.0
2016-Nov-17 06:33N 23°03' E 113°21'  
Track history (hours):
 
Tides and Currents Weather Stations Pressure Air Temp Water Temp Dewpoint Dewpoint Depression Visibility Wind Speed Wind Dir Waves Ship Positions

De Sui

Last reported at 2016-Nov-27 05:31 UTC. Time now 2016-Dec-11 06:15 UTC.
Position N 22°52' E 113°33'.
Warning: this ship's position is 14 days out of date.

Length 65 m; draft 4.8 m.

Type: Towing. MMSI: 413070000.

Date/timePositionNaut miles runAvg speedWind from/ knotsBaromVisibWave heightAir tempDewpointWater temp
2016-Nov-27 05:31N 22°52' E 113°33'0 0.1
2016-Nov-27 04:23N 22°52' E 113°33'0 0.0
2016-Nov-27 02:25N 22°52' E 113°33'0 0.0
2016-Nov-27 01:20N 22°52' E 113°33'0 0.0
2016-Nov-27 00:29N 22°52' E 113°33'0 0.0
2016-Nov-26 23:32N 22°52' E 113°33'0 0.0
2016-Nov-26 22:32N 22°52' E 113°33'0 0.0
2016-Nov-26 19:15N 22°52' E 113°33'0 0.0
2016-Nov-26 11:05N 22°52' E 113°33'1 0.2
2016-Nov-26 05:32N 22°52' E 113°33'6 6.0
2016-Nov-26 04:34N 22°57' E 113°32'8 8.0
2016-Nov-26 03:33N 23°05' E 113°28'6 6.4
2016-Nov-26 02:33N 23°02' E 113°21'1 1.0
2016-Nov-26 01:33N 23°03' E 113°21'0 0.0
2016-Nov-26 00:33N 23°03' E 113°21'0 0.0
2016-Nov-25 23:33N 23°03' E 113°21'0 0.0
2016-Nov-25 22:33N 23°03' E 113°21'0 0.0
2016-Nov-25 21:32N 23°03' E 113°21'0 0.0
2016-Nov-25 20:33N 23°03' E 113°21'0 0.0
2016-Nov-25 19:33N 23°03' E 113°21'0 0.0
2016-Nov-25 18:33N 23°03' E 113°21'0 0.0
2016-Nov-25 17:33N 23°03' E 113°21'0 0.0
2016-Nov-25 16:33N 23°03' E 113°21'0 0.0
2016-Nov-25 15:33N 23°03' E 113°21'0 0.0
2016-Nov-25 14:33N 23°03' E 113°21'0 0.0
2016-Nov-25 13:33N 23°03' E 113°21'0 0.0
2016-Nov-25 12:33N 23°03' E 113°21'0 0.0
2016-Nov-25 11:33N 23°03' E 113°21'0 0.0
2016-Nov-25 10:33N 23°03' E 113°21'0 0.0
2016-Nov-25 09:33N 23°03' E 113°21'0 0.0
2016-Nov-25 08:33N 23°03' E 113°21'0 0.0
2016-Nov-25 07:33N 23°03' E 113°21'0 0.0
2016-Nov-25 06:32N 23°03' E 113°21'0 0.0
2016-Nov-25 05:33N 23°03' E 113°21'0 0.0
2016-Nov-25 04:33N 23°03' E 113°21'0 0.0
2016-Nov-25 03:33N 23°03' E 113°21'0 0.0
2016-Nov-25 02:32N 23°03' E 113°21'0 0.0
2016-Nov-25 01:33N 23°03' E 113°21'0 0.0
2016-Nov-25 00:32N 23°03' E 113°21'0 0.0
2016-Nov-24 23:33N 23°03' E 113°21'0 0.0
2016-Nov-24 22:32N 23°03' E 113°21'0 0.0
2016-Nov-24 21:33N 23°03' E 113°21'0 0.0
2016-Nov-24 20:33N 23°03' E 113°21'0 0.0
2016-Nov-24 19:32N 23°03' E 113°21'0 0.0
2016-Nov-24 18:33N 23°03' E 113°21'0 0.0
2016-Nov-24 17:33N 23°03' E 113°21'0 0.0
2016-Nov-24 16:32N 23°03' E 113°21'0 0.0
2016-Nov-24 15:33N 23°03' E 113°21'0 0.0
2016-Nov-24 14:33N 23°03' E 113°21'0 0.0
2016-Nov-24 13:33N 23°03' E 113°21'0 0.0
2016-Nov-24 12:32N 23°03' E 113°21'0 0.0
2016-Nov-24 11:33N 23°03' E 113°21'0 0.0
2016-Nov-24 10:33N 23°03' E 113°21'0 0.0
2016-Nov-24 09:33N 23°03' E 113°21'0 0.0
2016-Nov-24 08:33N 23°03' E 113°21'0 0.1
2016-Nov-24 07:33N 23°03' E 113°21'0 0.0
2016-Nov-24 06:29N 23°03' E 113°21'0 0.1
2016-Nov-24 05:32N 23°03' E 113°21'0 0.0
2016-Nov-24 04:33N 23°03' E 113°21'0 0.0
2016-Nov-24 03:28N 23°03' E 113°21'0 0.0
2016-Nov-24 02:33N 23°03' E 113°21'0 0.0
2016-Nov-24 01:33N 23°03' E 113°21'0 0.0
2016-Nov-24 00:33N 23°03' E 113°21'0 0.0
2016-Nov-23 23:33N 23°03' E 113°21'0 0.0
2016-Nov-23 22:33N 23°03' E 113°21'0 0.0
2016-Nov-23 21:33N 23°03' E 113°21'0 0.0
2016-Nov-23 20:33N 23°03' E 113°21'0 0.0
2016-Nov-23 19:33N 23°03' E 113°21'0 0.0
2016-Nov-23 18:33N 23°03' E 113°21'0 0.0
2016-Nov-23 17:33N 23°03' E 113°21'0 0.0
2016-Nov-23 16:33N 23°03' E 113°21'0 0.0
2016-Nov-23 15:18N 23°03' E 113°21'0 0.0
2016-Nov-23 14:25N 23°03' E 113°21'0 0.0
2016-Nov-23 13:32N 23°03' E 113°21'0 0.0
2016-Nov-23 12:33N 23°03' E 113°21'0 0.0
2016-Nov-23 11:33N 23°03' E 113°21'0 0.0
2016-Nov-23 10:33N 23°03' E 113°21'0 0.0
2016-Nov-23 09:33N 23°03' E 113°21'0 0.0
2016-Nov-23 08:28N 23°03' E 113°21'0 0.0
2016-Nov-23 07:33N 23°03' E 113°21'0 0.0
2016-Nov-23 06:12N 23°03' E 113°21'0 0.0
2016-Nov-23 03:33N 23°03' E 113°21'0 0.0
2016-Nov-23 02:32N 23°03' E 113°21'0 0.0
2016-Nov-22 17:27N 23°03' E 113°21'0 0.0
2016-Nov-22 08:31N 23°03' E 113°21'0 0.0
2016-Nov-22 07:33N 23°03' E 113°21'0 0.0
2016-Nov-22 05:30N 23°03' E 113°21'0 0.0
2016-Nov-22 03:33N 23°03' E 113°21'0 0.0
2016-Nov-22 02:31N 23°03' E 113°21'0 0.0
2016-Nov-21 23:32N 23°03' E 113°21'0 0.0
2016-Nov-21 21:33N 23°03' E 113°21'0 0.0
2016-Nov-21 17:33N 23°03' E 113°21'0 0.0
2016-Nov-21 14:33N 23°03' E 113°21'0 0.0
2016-Nov-21 13:32N 23°03' E 113°21'0 0.0
2016-Nov-21 12:32N 23°03' E 113°21'0 0.0
2016-Nov-21 11:32N 23°03' E 113°21'0 0.0
2016-Nov-21 10:33N 23°03' E 113°21'0 0.0
2016-Nov-21 08:32N 23°03' E 113°21'0 0.0
2016-Nov-21 07:33N 23°03' E 113°21'3 1.4
2016-Nov-21 05:33N 23°02' E 113°23'7 6.3
2016-Nov-21 04:30N 23°02' E 113°31'11 0.2
2016-Nov-19 02:07N 22°52' E 113°34'6 9.7
2016-Nov-19 01:32N 22°57' E 113°32'9 8.8
2016-Nov-19 00:33N 23°05' E 113°27'7 6.5
2016-Nov-18 23:33N 23°03' E 113°21'0 0.1
2016-Nov-18 20:33N 23°03' E 113°21'0 0.0
2016-Nov-18 18:33N 23°03' E 113°21'0 0.0
2016-Nov-18 17:32N 23°03' E 113°21'0 0.0
2016-Nov-18 14:21N 23°03' E 113°21'0 0.0
2016-Nov-18 12:33N 23°03' E 113°21'0 0.0
2016-Nov-18 11:33N 23°03' E 113°21'0 0.1
2016-Nov-18 09:28N 23°03' E 113°20'0 0.0
2016-Nov-18 07:32N 23°03' E 113°20'0 0.1
2016-Nov-18 05:32N 23°03' E 113°21'0 0.0
2016-Nov-18 04:27N 23°03' E 113°21'0 0.0
2016-Nov-18 01:33N 23°03' E 113°21'0 0.0
2016-Nov-18 00:33N 23°03' E 113°21'0 0.0
2016-Nov-17 23:33N 23°03' E 113°21'0 0.0
2016-Nov-17 22:33N 23°03' E 113°21'0 0.0
2016-Nov-17 21:32N 23°03' E 113°21'0 0.0
2016-Nov-17 14:33N 23°03' E 113°21'0 0.0
2016-Nov-17 13:30N 23°03' E 113°21'0 0.0
2016-Nov-17 12:33N 23°03' E 113°21'0 0.0
2016-Nov-17 11:33N 23°03' E 113°21'0 0.0
2016-Nov-17 08:25N 23°03' E 113°21'0 0.0
2016-Nov-17 06:33N 23°03' E 113°21'  

Dump ship's entire track history